Time;durP1;ratioP1;P1;durP2;ratioP2;P2;SDS_P1;SDS_P2;PMS_P1;PMS_P2;Temp;Humidity;BMP_temperature;BMP_pressure;BME280_temperature;BME280_humidity;BME280_pressure;Samples;Min_cycle;Max_cycle;Signal;HPM_P1;HPM_P2
2023/03/09 00:00:53;;;;;;;3.40;1.77;;;10.60;99.90;;;;;;4989955;28;20218;-41
2023/03/09 00:03:19;;;;;;;3.73;2.20;;;10.50;99.90;;;;;;4993590;28;20188;-41
2023/03/09 00:05:59;;;;;;;4.23;2.03;;;10.60;99.90;;;;;;4993004;28;20176;-42
2023/03/09 00:08:28;;;;;;;2.07;1.40;;;10.60;99.90;;;;;;4977089;28;20231;-41
2023/03/09 00:10:54;;;;;;;2.67;1.03;;;10.60;99.90;;;;;;4985974;28;20211;-40
2023/03/09 00:13:21;;;;;;;1.73;0.90;;;10.60;99.90;;;;;;4987988;28;20239;-42
2023/03/09 00:15:52;;;;;;;1.53;0.90;;;10.60;99.90;;;;;;4986601;28;20174;-42
2023/03/09 00:18:23;;;;;;;0.97;0.80;;;10.50;99.90;;;;;;4970637;28;20219;-41
2023/03/09 00:20:49;;;;;;;0.77;0.70;;;10.50;99.90;;;;;;4992623;28;20208;-41
2023/03/09 00:23:18;;;;;;;0.70;0.70;;;10.60;99.90;;;;;;4978194;28;20184;-42
2023/03/09 00:25:45;;;;;;;1.97;1.00;;;10.60;99.90;;;;;;4959104;28;20202;-42
2023/03/09 00:28:12;;;;;;;2.73;1.10;;;10.60;99.90;;;;;;4977168;28;20198;-41
2023/03/09 00:30:37;;;;;;;2.90;1.00;;;10.70;99.90;;;;;;4978656;28;20224;-40
2023/03/09 00:33:03;;;;;;;2.70;1.20;;;10.70;99.90;;;;;;4982222;28;20193;-43
2023/03/09 00:35:30;;;;;;;1.60;1.20;;;10.60;99.90;;;;;;4981611;28;20181;-36
2023/03/09 00:37:56;;;;;;;5.60;1.40;;;10.60;99.90;;;;;;4981529;28;20219;-41
2023/03/09 00:40:22;;;;;;;2.10;1.10;;;10.70;99.90;;;;;;4996113;28;20217;-41
2023/03/09 00:42:48;;;;;;;2.07;0.70;;;10.60;99.90;;;;;;4958937;28;20235;-43
2023/03/09 00:45:15;;;;;;;2.50;0.70;;;10.60;99.90;;;;;;4974787;28;20226;-41
2023/03/09 00:47:41;;;;;;;0.77;0.40;;;10.50;99.90;;;;;;4976317;28;20184;-41
2023/03/09 00:50:09;;;;;;;0.90;0.50;;;10.30;99.90;;;;;;4976025;28;20200;-42
2023/03/09 00:52:34;;;;;;;0.40;0.40;;;10.10;99.90;;;;;;4992855;28;20231;-41
2023/03/09 00:55:00;;;;;;;0.60;0.47;;;10.00;99.90;;;;;;4993568;28;20196;-42
2023/03/09 00:57:26;;;;;;;0.77;0.50;;;9.90;99.90;;;;;;4975675;28;20187;-41
2023/03/09 00:59:53;;;;;;;1.40;0.67;;;9.80;99.90;;;;;;4975486;28;20548;-41
2023/03/09 01:02:22;;;;;;;0.50;0.50;;;9.70;99.90;;;;;;4975824;28;20235;-41
2023/03/09 01:04:48;;;;;;;0.83;0.50;;;9.70;99.90;;;;;;4991570;28;20172;-40
2023/03/09 01:07:15;;;;;;;0.47;0.47;;;9.70;99.90;;;;;;4976334;28;20232;-41
2023/03/09 01:09:41;;;;;;;0.30;0.30;;;9.60;99.90;;;;;;4975339;28;20178;-42
2023/03/09 01:12:07;;;;;;;0.57;0.50;;;9.60;99.90;;;;;;4956633;28;20271;-41
2023/03/09 01:14:34;;;;;;;0.40;0.40;;;9.60;99.90;;;;;;4956489;28;20177;-41
2023/03/09 01:17:00;;;;;;;0.70;0.50;;;9.70;99.90;;;;;;4972088;28;20180;-42
2023/03/09 01:19:26;;;;;;;0.37;0.37;;;9.70;99.90;;;;;;4975360;28;20183;-42
2023/03/09 01:21:52;;;;;;;0.73;0.50;;;9.70;99.90;;;;;;4975362;28;20211;-41
2023/03/09 01:24:17;;;;;;;1.17;0.60;;;9.70;99.90;;;;;;4974882;28;20188;-41
2023/03/09 01:26:43;;;;;;;0.40;0.40;;;9.70;99.90;;;;;;4974928;28;20184;-39
2023/03/09 01:29:09;;;;;;;0.90;0.50;;;9.80;99.90;;;;;;4951718;28;20267;-41
2023/03/09 01:31:35;;;;;;;0.60;0.40;;;9.70;99.90;;;;;;4974177;28;20218;-40
2023/03/09 01:34:01;;;;;;;0.60;0.60;;;9.70;99.90;;;;;;4974845;28;20183;-42
2023/03/09 01:36:27;;;;;;;2.17;0.60;;;9.60;99.90;;;;;;4993334;28;20258;-41
2023/03/09 01:38:53;;;;;;;1.00;0.50;;;9.60;99.90;;;;;;4975229;28;20279;-40
2023/03/09 01:41:21;;;;;;;1.10;0.50;;;9.60;99.90;;;;;;4975049;28;20298;-41
2023/03/09 01:43:50;;;;;;;1.13;0.43;;;9.50;99.90;;;;;;4980846;28;20243;-42
2023/03/09 01:46:25;;;;;;;1.90;0.60;;;9.40;99.90;;;;;;4975081;28;20191;-40
2023/03/09 01:49:06;;;;;;;0.77;0.43;;;9.40;99.90;;;;;;4974497;28;20246;-42
2023/03/09 01:51:47;;;;;;;1.90;0.50;;;9.30;99.90;;;;;;4975042;28;20212;-41
2023/03/09 01:54:20;;;;;;;0.40;0.40;;;9.30;99.90;;;;;;4974141;28;20184;-41
2023/03/09 01:56:49;;;;;;;0.53;0.50;;;9.30;99.90;;;;;;4975578;28;20273;-40
2023/03/09 01:59:15;;;;;;;1.43;0.50;;;9.20;99.90;;;;;;4958522;28;20178;-41
2023/03/09 02:01:42;;;;;;;0.90;0.50;;;9.20;99.90;;;;;;4958475;28;20203;-39
2023/03/09 02:04:15;;;;;;;1.63;0.90;;;9.20;99.90;;;;;;4974442;28;20183;-41
2023/03/09 02:06:41;;;;;;;0.70;0.40;;;9.20;99.90;;;;;;4992459;28;20213;-41
2023/03/09 02:09:39;;;;;;;0.77;0.50;;;9.10;99.90;;;;;;4975189;28;20192;-40
2023/03/09 02:12:11;;;;;;;0.30;0.30;;;9.10;99.90;;;;;;4937762;28;20219;-39
2023/03/09 02:14:37;;;;;;;0.97;0.67;;;9.10;99.90;;;;;;4974066;28;20172;-41
2023/03/09 02:17:03;;;;;;;1.87;0.50;;;9.10;99.90;;;;;;4958492;28;20207;-41
2023/03/09 02:19:55;;;;;;;1.10;0.40;;;9.10;99.90;;;;;;4974342;28;20219;-41
2023/03/09 02:22:21;;;;;;;0.40;0.40;;;9.10;99.90;;;;;;4974341;28;20211;-42
2023/03/09 02:24:56;;;;;;;0.90;0.50;;;9.00;99.90;;;;;;4955590;28;20177;-41
2023/03/09 02:27:25;;;;;;;1.10;0.33;;;9.00;99.90;;;;;;4990136;28;20199;-38
2023/03/09 02:29:53;;;;;;;1.07;0.70;;;8.90;99.90;;;;;;4958639;28;20242;-42
2023/03/09 02:32:20;;;;;;;0.60;0.57;;;8.90;99.90;;;;;;4957952;28;20203;-41
2023/03/09 02:34:46;;;;;;;0.77;0.53;;;8.90;99.90;;;;;;4961723;28;20168;-40
2023/03/09 02:37:32;;;;;;;0.50;0.50;;;8.80;99.90;;;;;;4974550;28;20180;-41
2023/03/09 02:40:28;;;;;;;0.50;0.40;;;8.70;99.90;;;;;;4975210;28;20184;-38
2023/03/09 02:42:57;;;;;;;0.40;0.40;;;8.70;99.90;;;;;;4974636;28;20275;-41
2023/03/09 02:45:24;;;;;;;0.47;0.30;;;8.70;99.90;;;;;;4974226;28;20266;-39
2023/03/09 02:47:52;;;;;;;0.40;0.40;;;8.70;99.90;;;;;;4974174;28;20719;-41
2023/03/09 02:50:18;;;;;;;1.53;0.50;;;8.70;99.90;;;;;;4990200;28;20236;-42
2023/03/09 02:52:44;;;;;;;0.40;0.40;;;8.70;99.90;;;;;;4973857;28;20262;-41
2023/03/09 02:55:11;;;;;;;0.50;0.50;;;8.70;99.90;;;;;;4990016;28;20279;-40
2023/03/09 02:57:37;;;;;;;1.37;0.40;;;8.70;99.90;;;;;;4958484;28;20263;-41
2023/03/09 03:00:11;;;;;;;0.87;0.60;;;8.70;99.90;;;;;;4974197;28;20671;-40
2023/03/09 03:02:38;;;;;;;0.70;0.50;;;8.70;99.90;;;;;;4957254;28;20568;-39
2023/03/09 03:05:05;;;;;;;1.23;0.70;;;8.70;99.90;;;;;;4973847;28;20195;-42
2023/03/09 03:07:31;;;;;;;1.80;0.80;;;8.70;99.90;;;;;;4961187;28;20190;-39
2023/03/09 03:09:56;;;;;;;1.00;0.63;;;8.70;99.90;;;;;;4995214;28;20182;-39
2023/03/09 03:12:23;;;;;;;0.93;0.70;;;8.70;99.90;;;;;;4977666;28;20196;-41
2023/03/09 03:14:49;;;;;;;1.13;0.57;;;8.80;99.90;;;;;;4976518;28;20176;-40
2023/03/09 03:17:15;;;;;;;0.70;0.70;;;8.80;99.90;;;;;;4961964;28;20176;-40
2023/03/09 03:19:41;;;;;;;0.90;0.70;;;8.80;99.90;;;;;;4995333;28;20179;-41
2023/03/09 03:22:08;;;;;;;0.90;0.50;;;8.90;99.90;;;;;;4961921;28;20204;-41
2023/03/09 03:24:36;;;;;;;0.73;0.67;;;8.90;99.90;;;;;;4958136;28;20180;-41
2023/03/09 03:27:02;;;;;;;1.27;0.90;;;8.90;99.90;;;;;;4966379;28;20188;-41
2023/03/09 03:29:28;;;;;;;2.47;0.80;;;8.90;99.90;;;;;;4958558;28;20176;-39
2023/03/09 03:31:54;;;;;;;1.17;0.60;;;9.00;99.90;;;;;;4987477;28;20215;-41
2023/03/09 03:34:22;;;;;;;1.10;0.80;;;9.10;99.90;;;;;;4977453;28;20226;-40
2023/03/09 03:36:48;;;;;;;0.73;0.70;;;9.10;99.90;;;;;;4977240;28;20192;-40
2023/03/09 03:39:14;;;;;;;2.57;0.80;;;9.20;99.90;;;;;;4976644;28;20183;-39
2023/03/09 03:41:41;;;;;;;1.93;0.80;;;9.20;99.90;;;;;;4977715;28;20207;-41
2023/03/09 03:44:12;;;;;;;1.30;0.53;;;9.30;99.90;;;;;;4961899;28;20179;-42
2023/03/09 03:46:39;;;;;;;0.50;0.50;;;9.30;99.90;;;;;;4977157;28;20184;-41
2023/03/09 03:49:06;;;;;;;0.60;0.60;;;9.30;99.90;;;;;;4977417;28;20184;-41
2023/03/09 03:51:35;;;;;;;1.53;0.60;;;9.30;99.90;;;;;;4976706;28;20231;-42
2023/03/09 03:54:01;;;;;;;0.90;0.40;;;9.30;99.90;;;;;;4993387;28;20190;-38
2023/03/09 03:56:27;;;;;;;2.07;0.57;;;9.30;99.90;;;;;;4976816;28;20223;-41
2023/03/09 03:58:54;;;;;;;0.83;0.50;;;9.30;99.90;;;;;;4976941;28;20205;-39
2023/03/09 04:01:21;;;;;;;0.90;0.57;;;9.20;99.90;;;;;;4960409;28;20204;-41
2023/03/09 04:03:52;;;;;;;0.93;0.60;;;9.20;99.90;;;;;;4977335;28;20188;-41
2023/03/09 04:06:18;;;;;;;0.60;0.60;;;9.20;99.90;;;;;;4961104;28;20211;-42
2023/03/09 04:08:46;;;;;;;1.13;0.50;;;9.20;99.90;;;;;;4976506;28;20653;-41
2023/03/09 04:11:12;;;;;;;0.47;0.47;;;9.20;99.90;;;;;;4976886;28;20235;-40
2023/03/09 04:13:42;;;;;;;1.03;0.70;;;9.10;99.90;;;;;;4976860;28;20176;-42
2023/03/09 04:16:08;;;;;;;0.50;0.50;;;9.10;99.90;;;;;;4976645;28;20172;-41
2023/03/09 04:18:34;;;;;;;1.53;0.80;;;9.00;99.90;;;;;;4993075;28;20234;-42
2023/03/09 04:21:01;;;;;;;1.57;0.73;;;9.00;99.90;;;;;;4976739;28;20200;-41
2023/03/09 04:23:27;;;;;;;0.73;0.70;;;9.00;99.90;;;;;;4976947;28;20187;-39
2023/03/09 04:25:58;;;;;;;1.50;0.50;;;8.90;99.90;;;;;;4960698;28;20208;-41
2023/03/09 04:28:29;;;;;;;2.20;0.60;;;8.90;99.90;;;;;;4975371;28;20199;-41
2023/03/09 04:30:56;;;;;;;1.43;0.90;;;8.90;99.90;;;;;;4957434;28;20208;-39
2023/03/09 04:33:24;;;;;;;2.50;1.77;;;8.90;99.90;;;;;;4983176;28;20172;-41
2023/03/09 04:35:50;;;;;;;1.30;1.17;;;8.90;99.90;;;;;;4976295;28;20176;-41
2023/03/09 04:38:21;;;;;;;1.50;0.80;;;8.90;99.90;;;;;;4973453;28;20188;-39
2023/03/09 04:40:49;;;;;;;4.10;1.30;;;8.90;99.90;;;;;;4957279;28;20208;-41
2023/03/09 04:43:15;;;;;;;1.83;1.00;;;8.90;99.90;;;;;;4988941;28;20183;-41
2023/03/09 04:45:42;;;;;;;4.37;1.17;;;8.90;99.90;;;;;;4976376;28;20223;-39
2023/03/09 04:48:08;;;;;;;2.47;0.93;;;8.90;99.90;;;;;;4960050;28;20197;-39
2023/03/09 04:50:36;;;;;;;1.43;1.13;;;8.90;99.90;;;;;;4991119;28;20239;-41
2023/03/09 04:53:04;;;;;;;4.17;1.40;;;8.90;99.90;;;;;;4975915;28;20182;-40
2023/03/09 04:55:33;;;;;;;4.50;1.50;;;8.90;99.90;;;;;;4976416;28;20187;-41
2023/03/09 04:58:02;;;;;;;3.83;1.37;;;8.90;99.90;;;;;;4975762;28;20683;-41
2023/03/09 05:00:30;;;;;;;4.93;1.40;;;8.90;99.90;;;;;;4975488;28;20219;-39
2023/03/09 05:02:56;;;;;;;3.77;1.30;;;8.90;99.90;;;;;;4992143;28;20194;-41
2023/03/09 05:05:23;;;;;;;2.63;1.40;;;8.90;99.90;;;;;;4959656;28;20188;-40
2023/03/09 05:07:53;;;;;;;6.00;1.50;;;8.90;99.90;;;;;;4975442;28;20283;-41
2023/03/09 05:10:19;;;;;;;3.93;1.47;;;8.90;99.90;;;;;;4966532;28;20224;-41
2023/03/09 05:12:47;;;;;;;5.97;1.80;;;8.90;99.90;;;;;;4992332;28;20268;-41
2023/03/09 05:15:17;;;;;;;5.43;1.60;;;8.80;99.90;;;;;;4990676;28;20192;-41
2023/03/09 05:17:43;;;;;;;6.47;1.70;;;8.80;99.90;;;;;;4974558;28;20180;-40
2023/03/09 05:20:11;;;;;;;3.40;1.30;;;8.80;99.90;;;;;;4975477;28;20190;-41
2023/03/09 05:22:42;;;;;;;5.03;1.67;;;8.70;99.90;;;;;;4975421;28;20187;-41
2023/03/09 05:25:10;;;;;;;2.93;1.30;;;8.70;99.90;;;;;;4958984;28;20196;-41
2023/03/09 05:27:36;;;;;;;5.77;1.60;;;8.70;99.90;;;;;;4956223;28;20203;-40
2023/03/09 05:30:03;;;;;;;7.83;1.50;;;8.60;99.90;;;;;;4990579;28;20180;-40
2023/03/09 05:32:32;;;;;;;6.93;1.50;;;8.60;99.90;;;;;;4991401;28;20276;-40
2023/03/09 05:34:58;;;;;;;7.90;2.03;;;8.60;99.90;;;;;;4975392;28;20187;-41
2023/03/09 05:37:24;;;;;;;5.43;1.60;;;8.60;99.90;;;;;;4958998;28;20176;-41
2023/03/09 05:39:53;;;;;;;5.80;1.70;;;8.60;99.90;;;;;;4975103;28;20183;-41
2023/03/09 05:42:19;;;;;;;4.60;1.80;;;8.50;99.90;;;;;;4959658;28;20200;-39
2023/03/09 05:44:46;;;;;;;7.93;3.07;;;8.50;99.90;;;;;;4956053;28;20177;-40
2023/03/09 05:47:12;;;;;;;5.57;2.60;;;8.50;99.90;;;;;;4973828;28;20649;-40
2023/03/09 05:49:37;;;;;;;8.87;3.37;;;8.60;99.90;;;;;;4972997;28;20323;-40
2023/03/09 05:52:04;;;;;;;6.43;2.70;;;8.60;99.90;;;;;;4991927;28;20210;-42
2023/03/09 05:54:31;;;;;;;7.00;1.90;;;8.60;99.90;;;;;;4958666;28;20187;-41
2023/03/09 05:57:01;;;;;;;6.53;1.83;;;8.60;99.90;;;;;;4974432;28;20176;-41
2023/03/09 05:59:31;;;;;;;5.63;1.67;;;8.70;99.90;;;;;;4974506;28;20182;-41
2023/03/09 06:01:57;;;;;;;6.03;1.30;;;8.60;99.90;;;;;;4987604;28;20223;-41
2023/03/09 06:04:27;;;;;;;8.13;1.80;;;8.70;99.90;;;;;;4959404;28;20204;-42
2023/03/09 06:06:58;;;;;;;5.70;1.57;;;8.70;99.90;;;;;;4974316;28;20208;-40
2023/03/09 06:09:31;;;;;;;6.33;1.60;;;8.70;99.90;;;;;;4974951;28;20184;-39
2023/03/09 06:11:59;;;;;;;4.10;1.10;;;8.70;99.90;;;;;;4968920;28;20215;-39
2023/03/09 06:14:25;;;;;;;4.43;1.30;;;8.70;99.90;;;;;;4974132;28;20175;-41
2023/03/09 06:16:51;;;;;;;5.20;1.53;;;8.70;99.90;;;;;;4959653;28;20176;-40
2023/03/09 06:19:18;;;;;;;8.57;1.70;;;8.80;99.90;;;;;;4959303;28;20176;-41
2023/03/09 06:21:44;;;;;;;4.63;1.30;;;8.80;99.90;;;;;;4991005;28;20200;-40
2023/03/09 06:24:11;;;;;;;2.87;1.23;;;8.80;99.90;;;;;;4958326;28;20271;-39
2023/03/09 06:26:37;;;;;;;5.97;1.30;;;8.80;99.90;;;;;;4974220;28;20266;-41
2023/03/09 06:29:08;;;;;;;3.87;1.27;;;8.90;99.90;;;;;;4958859;28;20275;-41
2023/03/09 06:31:37;;;;;;;5.40;1.40;;;8.90;99.90;;;;;;4986662;28;20207;-39
2023/03/09 06:34:03;;;;;;;3.80;1.40;;;8.90;99.90;;;;;;4980859;28;20207;-42
2023/03/09 06:36:29;;;;;;;3.50;1.40;;;9.00;99.90;;;;;;4965340;28;20184;-41
2023/03/09 06:38:56;;;;;;;3.77;1.50;;;9.00;99.90;;;;;;4958120;28;20213;-39
2023/03/09 06:41:31;;;;;;;5.40;1.50;;;9.00;99.90;;;;;;4974556;28;20289;-43
2023/03/09 06:44:06;;;;;;;4.37;1.27;;;9.10;99.90;;;;;;4973478;28;20194;-42
2023/03/09 06:46:34;;;;;;;4.83;1.57;;;9.00;99.90;;;;;;4973773;28;20186;-42
2023/03/09 06:49:00;;;;;;;6.83;1.57;;;9.10;99.90;;;;;;4955090;28;20320;-43
2023/03/09 06:51:28;;;;;;;4.80;1.63;;;9.10;99.90;;;;;;4958870;28;20214;-43
2023/03/09 06:53:54;;;;;;;4.23;1.20;;;9.10;99.90;;;;;;4973418;28;20172;-41
2023/03/09 06:56:25;;;;;;;3.93;1.40;;;9.10;99.90;;;;;;4974327;28;20230;-43
2023/03/09 06:58:53;;;;;;;3.37;1.27;;;9.10;99.90;;;;;;4973409;28;20168;-42
2023/03/09 07:01:20;;;;;;;6.17;1.67;;;9.10;99.90;;;;;;4990328;28;20264;-42
2023/03/09 07:03:47;;;;;;;6.10;1.57;;;9.10;99.90;;;;;;4970614;28;20199;-42
2023/03/09 07:06:13;;;;;;;3.40;1.33;;;9.10;99.90;;;;;;4973275;28;20180;-42
2023/03/09 07:08:39;;;;;;;4.33;1.30;;;9.10;99.90;;;;;;4989012;28;20191;-43
2023/03/09 07:11:05;;;;;;;4.23;1.63;;;9.10;99.90;;;;;;4962767;28;20207;-43
2023/03/09 07:13:32;;;;;;;5.80;1.43;;;9.10;99.90;;;;;;4997114;28;20191;-43
2023/03/09 07:16:02;;;;;;;3.27;1.20;;;9.10;99.90;;;;;;4994678;28;20225;-42
2023/03/09 07:18:27;;;;;;;4.73;1.60;;;9.10;99.90;;;;;;4962558;28;20226;-43
2023/03/09 07:20:54;;;;;;;6.97;1.87;;;9.20;99.90;;;;;;4985582;28;20210;-42
2023/03/09 07:23:20;;;;;;;5.53;1.33;;;9.30;99.90;;;;;;4964203;28;20193;-42
2023/03/09 07:25:46;;;;;;;3.67;1.50;;;9.30;99.90;;;;;;4969273;28;20192;-43
2023/03/09 07:28:12;;;;;;;2.87;1.40;;;9.40;99.90;;;;;;4979653;28;20206;-43
2023/03/09 07:30:37;;;;;;;3.80;1.43;;;9.40;99.90;;;;;;4994703;28;20208;-42
2023/03/09 07:33:04;;;;;;;4.33;1.00;;;9.40;99.90;;;;;;4964836;28;20213;-43
2023/03/09 07:35:29;;;;;;;5.63;1.37;;;9.40;99.90;;;;;;5000225;28;20176;-43
2023/03/09 07:37:55;;;;;;;5.50;1.33;;;9.40;99.90;;;;;;4997178;28;20176;-39
2023/03/09 07:40:21;;;;;;;3.93;1.40;;;9.50;99.90;;;;;;4986074;28;20176;-41
2023/03/09 07:42:53;;;;;;;5.73;2.47;;;9.60;99.90;;;;;;4981608;28;20675;-41
2023/03/09 07:45:40;;;;;;;3.30;1.80;;;9.60;99.90;;;;;;5001105;28;20183;-41
2023/03/09 07:48:06;;;;;;;3.90;1.30;;;9.70;99.90;;;;;;4977597;28;20700;-38
2023/03/09 07:50:33;;;;;;;5.80;1.47;;;9.70;99.90;;;;;;4994447;28;20259;-41
2023/03/09 07:52:59;;;;;;;6.73;1.47;;;9.80;99.90;;;;;;4979586;28;20184;-39
2023/03/09 07:55:27;;;;;;;4.20;1.00;;;9.90;99.90;;;;;;5001355;28;20180;-41
2023/03/09 07:57:53;;;;;;;3.23;1.10;;;10.00;99.90;;;;;;4978856;28;20188;-41
2023/03/09 08:00:23;;;;;;;5.33;1.30;;;10.10;99.90;;;;;;4960724;28;20199;-41
2023/03/09 08:02:49;;;;;;;2.97;1.20;;;10.10;99.90;;;;;;4977364;28;20247;-41
2023/03/09 08:05:15;;;;;;;3.10;1.33;;;10.20;99.90;;;;;;4976980;28;20184;-42
2023/03/09 08:07:42;;;;;;;3.23;1.13;;;10.20;99.90;;;;;;4977252;28;20207;-41
2023/03/09 08:10:08;;;;;;;4.17;1.33;;;10.20;99.90;;;;;;4994487;28;20187;-41
2023/03/09 08:12:34;;;;;;;3.93;0.97;;;10.20;99.90;;;;;;4976498;28;20196;-41
2023/03/09 08:15:00;;;;;;;4.13;1.30;;;10.20;99.90;;;;;;4977172;28;20192;-41
2023/03/09 08:17:27;;;;;;;3.80;1.17;;;10.10;99.90;;;;;;4960295;28;20184;-40
2023/03/09 08:19:53;;;;;;;5.60;1.20;;;10.20;99.90;;;;;;4961104;28;20194;-41
2023/03/09 08:22:19;;;;;;;5.67;1.40;;;10.30;99.90;;;;;;4991625;28;20203;-41
2023/03/09 08:24:45;;;;;;;5.20;1.47;;;10.40;99.90;;;;;;4992664;28;20184;-41
2023/03/09 08:27:11;;;;;;;3.57;1.33;;;10.50;99.90;;;;;;4974527;28;20200;-41
2023/03/09 08:29:40;;;;;;;3.90;1.20;;;10.50;99.90;;;;;;4974268;28;20188;-41
2023/03/09 08:32:10;;;;;;;4.93;1.60;;;10.50;99.90;;;;;;4999022;28;20290;-41
2023/03/09 08:34:37;;;;;;;4.90;1.27;;;10.50;99.90;;;;;;4982240;28;20243;-39
2023/03/09 08:37:03;;;;;;;4.83;1.00;;;10.50;99.90;;;;;;4991546;28;20180;-39
2023/03/09 08:39:30;;;;;;;3.60;1.30;;;10.50;99.90;;;;;;4978008;28;20260;-41
2023/03/09 08:41:56;;;;;;;3.07;1.10;;;10.50;99.90;;;;;;4983309;28;20195;-43
2023/03/09 08:44:22;;;;;;;3.37;1.00;;;10.50;99.90;;;;;;4972515;28;20186;-40
2023/03/09 08:46:50;;;;;;;4.60;1.53;;;10.50;99.90;;;;;;4960069;28;20672;-41
2023/03/09 08:49:15;;;;;;;2.07;1.10;;;10.60;99.90;;;;;;4965351;28;20211;-42
2023/03/09 08:51:41;;;;;;;3.40;1.00;;;10.80;99.90;;;;;;4979682;28;20218;-41
2023/03/09 08:54:07;;;;;;;3.83;1.00;;;10.90;99.90;;;;;;4997083;28;20184;-43
2023/03/09 08:56:33;;;;;;;1.57;0.97;;;10.90;99.90;;;;;;4966049;28;20302;-43
2023/03/09 08:58:59;;;;;;;2.20;0.90;;;10.90;99.90;;;;;;4983271;28;20262;-42
2023/03/09 09:01:25;;;;;;;2.10;0.90;;;10.80;99.90;;;;;;4959825;28;20209;-43
2023/03/09 09:03:51;;;;;;;1.73;0.93;;;10.80;99.90;;;;;;4980429;28;20194;-43
2023/03/09 09:06:26;;;;;;;2.17;0.80;;;10.80;99.90;;;;;;4965873;28;20176;-43
2023/03/09 09:08:53;;;;;;;2.27;1.20;;;10.80;99.90;;;;;;4970889;28;20180;-41
2023/03/09 09:11:19;;;;;;;1.97;1.00;;;10.80;99.90;;;;;;4985990;28;20204;-43
2023/03/09 09:13:45;;;;;;;4.97;1.20;;;10.80;99.90;;;;;;4983646;28;20187;-43
2023/03/09 09:16:12;;;;;;;2.87;1.00;;;10.80;99.90;;;;;;4959532;28;20195;-43
2023/03/09 09:18:38;;;;;;;1.90;0.80;;;10.80;99.90;;;;;;4980188;28;20207;-42
2023/03/09 09:21:10;;;;;;;5.70;1.57;;;10.80;99.90;;;;;;4956537;28;20660;-43
2023/03/09 09:23:37;;;;;;;2.17;0.93;;;10.80;99.90;;;;;;4973787;28;20204;-43
2023/03/09 09:26:04;;;;;;;3.53;1.27;;;10.90;99.90;;;;;;4974088;28;20177;-44
2023/03/09 09:28:30;;;;;;;2.10;1.00;;;10.90;99.90;;;;;;4975025;28;20208;-43
2023/03/09 09:31:00;;;;;;;2.73;1.03;;;10.90;99.90;;;;;;4975742;28;20215;-43
2023/03/09 09:33:34;;;;;;;3.40;1.17;;;11.00;99.90;;;;;;4983521;28;20188;-41
2023/03/09 09:36:01;;;;;;;1.60;0.90;;;11.00;99.90;;;;;;4995083;28;20179;-44
2023/03/09 09:38:33;;;;;;;2.63;0.90;;;11.00;99.90;;;;;;4995126;28;20618;-44
2023/03/09 09:41:04;;;;;;;1.70;0.97;;;11.00;99.90;;;;;;5011385;28;20286;-44
2023/03/09 09:43:31;;;;;;;4.43;0.90;;;11.00;99.90;;;;;;4994980;28;20199;-43
2023/03/09 09:45:59;;;;;;;2.43;1.07;;;10.90;99.90;;;;;;4994788;28;20181;-42
2023/03/09 09:48:27;;;;;;;3.13;1.13;;;10.90;99.90;;;;;;4975872;28;20186;-43
2023/03/09 09:51:29;;;;;;;4.80;0.97;;;10.90;99.90;;;;;;4956379;28;20316;-43
2023/03/09 09:54:07;;;;;;;2.57;1.10;;;10.80;99.90;;;;;;4956251;28;20251;-43
2023/03/09 09:56:49;;;;;;;2.87;1.20;;;10.70;99.90;;;;;;4991274;28;20271;-44
2023/03/09 09:59:56;;;;;;;2.13;0.80;;;10.70;99.90;;;;;;4958947;28;20198;-43
2023/03/09 10:02:41;;;;;;;4.53;1.10;;;10.80;99.90;;;;;;4991482;28;20204;-43
2023/03/09 10:05:25;;;;;;;3.50;1.07;;;10.90;99.90;;;;;;4971744;28;20242;-44
2023/03/09 10:08:05;;;;;;;2.23;0.90;;;11.00;99.90;;;;;;4981066;28;20249;-44
2023/03/09 10:10:32;;;;;;;4.87;1.50;;;11.00;99.90;;;;;;4958600;28;20219;-43
2023/03/09 10:13:03;;;;;;;2.67;0.97;;;11.10;99.90;;;;;;4958086;28;20179;-42
2023/03/09 10:15:33;;;;;;;4.27;1.23;;;11.20;99.90;;;;;;4973843;28;20239;-43
2023/03/09 10:18:06;;;;;;;4.43;1.00;;;11.30;99.90;;;;;;4974849;28;20215;-43
2023/03/09 10:20:40;;;;;;;3.80;1.10;;;11.50;99.90;;;;;;4973672;28;20217;-43
2023/03/09 10:23:22;;;;;;;6.70;1.20;;;11.60;99.90;;;;;;4991926;28;20199;-41
2023/03/09 10:25:52;;;;;;;3.53;1.30;;;11.70;99.90;;;;;;4970401;28;20279;-42
2023/03/09 10:28:20;;;;;;;5.30;1.40;;;11.80;99.90;;;;;;4958229;28;20251;-44
2023/03/09 10:31:20;;;;;;;7.10;1.47;;;11.90;99.90;;;;;;4974273;28;20228;-42
2023/03/09 10:33:49;;;;;;;3.43;1.40;;;12.10;99.90;;;;;;4969110;28;20190;-42
2023/03/09 10:36:32;;;;;;;4.60;2.10;;;12.20;99.90;;;;;;4974850;28;20210;-43
2023/03/09 10:39:09;;;;;;;4.53;1.43;;;12.60;99.90;;;;;;4991981;28;20214;-43
2023/03/09 10:41:35;;;;;;;7.83;4.70;;;12.80;99.90;;;;;;4958514;28;20215;-43
2023/03/09 10:44:04;;;;;;;7.93;3.90;;;12.90;99.90;;;;;;4974036;28;20218;-41
2023/03/09 10:46:30;;;;;;;5.70;2.20;;;13.00;99.90;;;;;;4974564;28;20203;-44
2023/03/09 10:49:14;;;;;;;4.87;1.60;;;13.00;99.90;;;;;;4991925;28;20184;-43
2023/03/09 10:51:43;;;;;;;6.37;2.43;;;12.90;99.90;;;;;;4974450;28;20207;-41
2023/03/09 10:54:23;;;;;;;5.13;1.40;;;13.10;99.90;;;;;;4990886;28;20193;-43
2023/03/09 10:56:49;;;;;;;5.47;1.70;;;13.10;99.90;;;;;;4958148;28;20182;-43
2023/03/09 10:59:21;;;;;;;6.37;1.70;;;13.10;99.90;;;;;;4989084;28;20274;-44
2023/03/09 11:01:51;;;;;;;6.17;1.53;;;13.20;99.90;;;;;;4991573;28;20207;-43
2023/03/09 11:04:23;;;;;;;6.03;1.30;;;13.20;99.90;;;;;;4958219;28;20190;-43
2023/03/09 11:06:53;;;;;;;4.80;1.33;;;13.20;99.90;;;;;;4974230;28;20176;-43
2023/03/09 11:09:34;;;;;;;3.60;1.30;;;13.30;99.90;;;;;;4991289;28;20190;-43
2023/03/09 11:12:32;;;;;;;5.80;1.33;;;13.40;99.90;;;;;;4957460;28;20220;-43
2023/03/09 11:15:01;;;;;;;6.00;1.60;;;13.30;99.90;;;;;;4967844;28;20180;-44
2023/03/09 11:17:40;;;;;;;4.80;1.60;;;13.30;99.90;;;;;;4973851;28;20171;-43
2023/03/09 11:20:12;;;;;;;4.30;1.40;;;13.30;99.90;;;;;;4974052;28;20200;-43
2023/03/09 11:22:45;;;;;;;6.00;1.77;;;13.50;99.90;;;;;;4989983;28;20250;-43
2023/03/09 11:25:21;;;;;;;5.63;1.43;;;13.70;99.90;;;;;;4973589;28;20255;-40
2023/03/09 11:28:00;;;;;;;4.27;1.30;;;13.70;99.90;;;;;;4969632;28;20341;-43
2023/03/09 11:30:29;;;;;;;7.23;1.40;;;13.50;99.90;;;;;;4976977;28;20207;-44
2023/03/09 11:32:55;;;;;;;5.83;1.20;;;13.60;99.90;;;;;;4996042;28;20680;-43
2023/03/09 11:35:22;;;;;;;3.63;1.20;;;13.80;99.90;;;;;;4997134;28;20226;-43
2023/03/09 11:37:51;;;;;;;3.97;1.10;;;13.90;99.90;;;;;;4996209;28;20172;-43
2023/03/09 11:40:19;;;;;;;4.90;1.20;;;14.00;99.90;;;;;;4977916;28;20180;-43
2023/03/09 11:43:08;;;;;;;4.63;1.30;;;13.90;99.90;;;;;;4977225;28;20176;-43
2023/03/09 11:45:35;;;;;;;3.53;1.10;;;13.70;99.90;;;;;;4973094;28;20192;-43
2023/03/09 11:48:04;;;;;;;3.77;1.50;;;13.50;99.90;;;;;;4977090;28;20184;-42
2023/03/09 11:50:36;;;;;;;5.17;1.60;;;13.20;99.90;;;;;;4977235;28;20237;-43
2023/03/09 11:53:05;;;;;;;3.23;1.10;;;13.20;99.90;;;;;;4974320;28;20191;-43
2023/03/09 11:55:38;;;;;;;6.43;1.23;;;13.30;99.90;;;;;;4975467;28;20212;-43
2023/03/09 11:58:09;;;;;;;5.73;1.23;;;13.50;99.90;;;;;;4973670;28;20206;-43
2023/03/09 12:00:38;;;;;;;2.10;1.00;;;13.70;99.90;;;;;;4977503;28;20282;-43
2023/03/09 12:03:15;;;;;;;5.17;1.20;;;13.70;99.90;;;;;;4977004;28;20233;-43
2023/03/09 12:05:54;;;;;;;3.80;1.10;;;13.70;99.90;;;;;;4993115;28;20204;-43
2023/03/09 12:08:35;;;;;;;2.33;1.00;;;13.80;99.90;;;;;;4989463;28;20250;-43
2023/03/09 12:11:27;;;;;;;5.73;1.33;;;13.80;99.90;;;;;;4973937;28;20219;-43
2023/03/09 12:14:04;;;;;;;2.87;1.00;;;13.80;99.90;;;;;;4956497;28;20203;-43
2023/03/09 12:16:39;;;;;;;4.50;1.30;;;13.70;99.90;;;;;;4977303;28;20210;-43
2023/03/09 12:19:14;;;;;;;3.33;1.10;;;13.60;99.90;;;;;;4975392;28;20180;-43
2023/03/09 12:22:02;;;;;;;4.63;1.10;;;13.70;99.90;;;;;;4960773;28;20213;-41
2023/03/09 12:24:31;;;;;;;5.53;1.30;;;13.60;99.90;;;;;;4957564;28;20287;-43
2023/03/09 12:27:02;;;;;;;8.73;1.30;;;13.50;99.90;;;;;;4980735;28;20190;-43
2023/03/09 12:29:38;;;;;;;5.93;1.40;;;13.50;99.90;;;;;;4992833;28;20210;-43
2023/03/09 12:32:17;;;;;;;2.50;1.00;;;13.50;99.90;;;;;;4991763;28;20221;-42
2023/03/09 12:34:44;;;;;;;4.87;1.50;;;13.40;99.90;;;;;;4994235;28;20193;-43
2023/03/09 12:37:30;;;;;;;3.63;1.10;;;13.30;99.90;;;;;;5001764;28;20183;-42
2023/03/09 12:40:17;;;;;;;3.70;1.27;;;13.30;99.90;;;;;;4951193;28;20185;-43
2023/03/09 12:42:49;;;;;;;4.60;1.60;;;13.40;99.90;;;;;;4976830;28;20175;-43
2023/03/09 12:45:17;;;;;;;2.73;1.23;;;13.50;99.90;;;;;;4996468;28;20176;-43
2023/03/09 12:47:55;;;;;;;4.73;1.30;;;13.40;99.90;;;;;;4992895;28;20171;-43
2023/03/09 12:50:42;;;;;;;4.40;1.20;;;13.40;99.90;;;;;;4977190;28;20194;-40
2023/03/09 12:53:15;;;;;;;2.33;0.80;;;13.50;99.90;;;;;;4975480;28;20230;-41
2023/03/09 12:56:15;;;;;;;3.43;1.50;;;13.60;99.90;;;;;;4991749;28;20257;-43
2023/03/09 12:58:43;;;;;;;3.77;1.03;;;13.50;99.90;;;;;;4970402;28;20263;-43
2023/03/09 13:01:28;;;;;;;3.30;1.30;;;13.50;99.90;;;;;;4992282;28;20207;-43
2023/03/09 13:04:09;;;;;;;3.67;1.07;;;13.40;99.90;;;;;;4975203;28;20237;-42
2023/03/09 13:07:01;;;;;;;3.43;1.20;;;13.50;99.90;;;;;;4974417;28;20191;-42